Time;durP1;ratioP1;P1;durP2;ratioP2;P2;SDS_P1;SDS_P2;PMS_P1;PMS_P2;Temp;Humidity;BMP_temperature;BMP_pressure;BME280_temperature;BME280_humidity;BME280_pressure;Samples;Min_cycle;Max_cycle;Signal;HPM_P1;HPM_P2
2023/07/17 00:00:12;;;;;;;;;;;19.30;99.90;;;;;;5125743;28;19986;-69
2023/07/17 00:02:41;;;;;;;;;;;19.30;99.90;;;;;;5126346;28;20003;-69
2023/07/17 00:05:07;;;;;;;;;;;19.30;99.90;;;;;;5126230;28;20114;-69
2023/07/17 00:07:34;;;;;;;;;;;19.20;99.90;;;;;;5126008;28;19951;-70
2023/07/17 00:10:01;;;;;;;;;;;19.10;99.90;;;;;;5105279;28;19920;-69
2023/07/17 00:12:27;;;;;;;;;;;19.10;99.90;;;;;;5105613;28;19924;-69
2023/07/17 00:14:54;;;;;;;;;;;19.10;99.90;;;;;;5105287;28;20012;-69
2023/07/17 00:17:20;;;;;;;;;;;19.10;99.90;;;;;;5105671;28;19926;-68
2023/07/17 00:19:54;;;;;;;;;;;19.00;99.90;;;;;;5105259;28;20208;-69
2023/07/17 00:22:21;;;;;;;;;;;19.00;99.90;;;;;;5105163;28;19958;-69
2023/07/17 00:24:48;;;;;;;;;;;19.00;99.90;;;;;;5105351;28;20101;-68
2023/07/17 00:27:14;;;;;;;;;;;18.90;99.90;;;;;;5114281;28;19919;-69
2023/07/17 00:29:43;;;;;;;;;;;18.80;99.90;;;;;;5125681;28;19919;-68
2023/07/17 00:32:10;;;;;;;;;;;18.90;99.90;;;;;;5124882;28;19957;-73
2023/07/17 00:34:37;;;;;;;;;;;18.90;99.90;;;;;;5111494;28;19962;-68
2023/07/17 00:37:05;;;;;;;;;;;18.80;99.90;;;;;;5105280;28;19923;-68
2023/07/17 00:39:32;;;;;;;;;;;18.80;99.90;;;;;;5105311;28;19927;-69
2023/07/17 00:41:59;;;;;;;;;;;18.80;99.90;;;;;;5104553;28;19920;-68
2023/07/17 00:44:25;;;;;;;;;;;18.90;99.90;;;;;;5105248;28;19920;-73
2023/07/17 00:46:52;;;;;;;;;;;18.90;99.90;;;;;;5105013;28;19987;-69
2023/07/17 00:49:19;;;;;;;;;;;18.90;99.90;;;;;;5104869;28;19951;-69
2023/07/17 00:51:46;;;;;;;;;;;19.00;99.90;;;;;;5104471;28;19992;-69
2023/07/17 00:54:15;;;;;;;;;;;19.00;99.90;;;;;;5104501;28;19920;-68
2023/07/17 00:56:43;;;;;;;;;;;19.00;99.90;;;;;;5104796;28;19999;-69
2023/07/17 00:59:09;;;;;;;;;;;19.10;99.90;;;;;;5104957;28;19942;-69
2023/07/17 01:01:36;;;;;;;;;;;19.10;99.90;;;;;;5111035;28;19920;-71
2023/07/17 01:04:06;;;;;;;;;;;19.10;99.90;;;;;;5125171;28;19946;-69
2023/07/17 01:06:38;;;;;;;;;;;19.10;99.90;;;;;;5124809;28;19962;-68
2023/07/17 01:09:04;;;;;;;;;;;19.10;99.90;;;;;;5125184;28;19957;-69
2023/07/17 01:11:32;;;;;;;;;;;19.20;99.90;;;;;;5124448;28;19919;-68
2023/07/17 01:13:59;;;;;;;;;;;19.20;99.90;;;;;;5124660;28;19920;-69
2023/07/17 01:16:26;;;;;;;;;;;19.20;99.90;;;;;;5124426;28;19920;-69
2023/07/17 01:18:52;;;;;;;;;;;19.20;99.90;;;;;;5124640;28;19920;-69
2023/07/17 01:21:21;;;;;;;;;;;19.10;99.90;;;;;;5124157;28;19983;-69
2023/07/17 01:23:49;;;;;;;;;;;19.10;99.90;;;;;;5124647;28;19926;-68
2023/07/17 01:26:16;;;;;;;;;;;19.20;99.90;;;;;;5124610;28;19920;-69
2023/07/17 01:28:44;;;;;;;;;;;19.10;99.90;;;;;;5124809;28;19920;-68
2023/07/17 01:31:11;;;;;;;;;;;19.10;99.90;;;;;;5124173;28;19982;-69
2023/07/17 01:33:37;;;;;;;;;;;19.10;99.90;;;;;;5124526;28;20093;-69
2023/07/17 01:36:05;;;;;;;;;;;19.10;99.90;;;;;;5124429;28;19920;-69
2023/07/17 01:38:31;;;;;;;;;;;19.10;99.90;;;;;;5124716;28;19919;-69
2023/07/17 01:40:59;;;;;;;;;;;19.10;99.90;;;;;;5123973;28;19921;-69
2023/07/17 01:43:26;;;;;;;;;;;19.10;99.90;;;;;;5124586;28;19920;-69
2023/07/17 01:45:53;;;;;;;;;;;19.10;99.90;;;;;;5124387;28;20261;-69
2023/07/17 01:48:20;;;;;;;;;;;19.10;99.90;;;;;;5124671;28;19982;-69
2023/07/17 01:50:46;;;;;;;;;;;19.10;99.90;;;;;;5123335;28;19982;-69
2023/07/17 01:53:13;;;;;;;;;;;19.10;99.90;;;;;;5124066;28;19990;-69
2023/07/17 01:55:40;;;;;;;;;;;19.10;99.90;;;;;;5124157;28;20166;-68
2023/07/17 01:58:08;;;;;;;;;;;19.00;99.90;;;;;;5124322;28;19920;-69
2023/07/17 02:00:34;;;;;;;;;;;19.00;99.90;;;;;;5123257;28;19920;-69
2023/07/17 02:03:01;;;;;;;;;;;18.90;99.90;;;;;;5124216;28;19928;-69
2023/07/17 02:05:28;;;;;;;;;;;19.00;99.90;;;;;;5123952;28;19987;-68
2023/07/17 02:07:54;;;;;;;;;;;18.90;99.90;;;;;;5123759;28;20259;-69
2023/07/17 02:10:21;;;;;;;;;;;19.00;99.90;;;;;;5123509;28;19926;-72
2023/07/17 02:12:47;;;;;;;;;;;18.90;99.90;;;;;;5124060;28;19995;-69
2023/07/17 02:15:16;;;;;;;;;;;18.90;99.90;;;;;;5123893;28;19926;-68
2023/07/17 02:17:42;;;;;;;;;;;18.90;99.90;;;;;;5123822;28;19920;-69
2023/07/17 02:20:11;;;;;;;;;;;18.90;99.90;;;;;;5122939;28;19986;-69
2023/07/17 02:22:37;;;;;;;;;;;18.90;99.90;;;;;;5123925;28;19919;-68
2023/07/17 02:25:05;;;;;;;;;;;18.90;99.90;;;;;;5123666;28;19920;-69
2023/07/17 02:27:32;;;;;;;;;;;18.80;99.90;;;;;;5124023;28;19920;-69
2023/07/17 02:29:58;;;;;;;;;;;18.80;99.90;;;;;;5123123;28;20202;-69
2023/07/17 02:32:26;;;;;;;;;;;18.70;99.90;;;;;;5123783;28;19983;-69
2023/07/17 02:34:53;;;;;;;;;;;18.70;99.90;;;;;;5123724;28;19920;-68
2023/07/17 02:37:19;;;;;;;;;;;18.60;99.90;;;;;;5123514;28;19986;-69
2023/07/17 02:39:46;;;;;;;;;;;18.60;99.90;;;;;;5123886;28;20017;-69
2023/07/17 02:42:13;;;;;;;;;;;18.60;99.90;;;;;;5122828;28;19991;-69
2023/07/17 02:44:39;;;;;;;;;;;18.60;99.90;;;;;;5123784;28;19983;-69
2023/07/17 02:47:06;;;;;;;;;;;18.50;99.90;;;;;;5123742;28;19962;-68
2023/07/17 02:49:34;;;;;;;;;;;18.50;99.90;;;;;;5123430;28;19927;-69
2023/07/17 02:52:01;;;;;;;;;;;18.50;99.90;;;;;;5123073;28;19920;-69
2023/07/17 02:54:27;;;;;;;;;;;18.50;99.90;;;;;;5123316;28;20115;-69
2023/07/17 02:56:54;;;;;;;;;;;18.50;99.90;;;;;;5123534;28;19994;-69
2023/07/17 02:59:21;;;;;;;;;;;18.50;99.90;;;;;;5123453;28;20170;-68
2023/07/17 03:01:48;;;;;;;;;;;18.50;99.90;;;;;;5122672;28;19992;-69
2023/07/17 03:04:14;;;;;;;;;;;18.40;99.90;;;;;;5123345;28;19947;-69
2023/07/17 03:06:42;;;;;;;;;;;18.40;99.90;;;;;;5123547;28;19920;-69
2023/07/17 03:09:09;;;;;;;;;;;18.50;99.90;;;;;;5123793;28;19920;-70
2023/07/17 03:11:35;;;;;;;;;;;18.50;99.90;;;;;;5123034;28;19983;-69
2023/07/17 03:14:02;;;;;;;;;;;18.50;99.90;;;;;;5123315;28;19926;-68
2023/07/17 03:16:28;;;;;;;;;;;18.60;99.90;;;;;;5123188;28;19951;-67
2023/07/17 03:18:55;;;;;;;;;;;18.60;99.90;;;;;;5123269;28;19996;-69
2023/07/17 03:21:22;;;;;;;;;;;18.60;99.90;;;;;;5122796;28;19926;-69
2023/07/17 03:23:50;;;;;;;;;;;18.60;99.90;;;;;;5123060;28;19952;-69
2023/07/17 03:26:17;;;;;;;;;;;18.60;99.90;;;;;;5122800;28;19919;-69
2023/07/17 03:28:43;;;;;;;;;;;18.60;99.90;;;;;;5123458;28;19986;-68
2023/07/17 03:31:10;;;;;;;;;;;18.50;99.90;;;;;;5123658;28;19926;-68
2023/07/17 03:33:36;;;;;;;;;;;18.40;99.90;;;;;;5126961;28;19942;-69
2023/07/17 03:36:03;;;;;;;;;;;18.30;99.90;;;;;;5126949;28;19962;-69
2023/07/17 03:38:30;;;;;;;;;;;18.30;99.90;;;;;;5127144;28;19920;-69
2023/07/17 03:40:58;;;;;;;;;;;18.30;99.90;;;;;;5126189;28;20262;-69
2023/07/17 03:43:24;;;;;;;;;;;18.30;99.90;;;;;;5126808;28;19987;-69
2023/07/17 03:45:52;;;;;;;;;;;18.30;99.90;;;;;;5126917;28;19920;-69
2023/07/17 03:48:18;;;;;;;;;;;18.30;99.90;;;;;;5126898;28;19920;-69
2023/07/17 03:50:45;;;;;;;;;;;18.20;99.90;;;;;;5126246;28;20024;-69
2023/07/17 03:53:12;;;;;;;;;;;18.20;99.90;;;;;;5126668;28;19920;-69
2023/07/17 03:55:39;;;;;;;;;;;18.20;99.90;;;;;;5126631;28;19985;-69
2023/07/17 03:58:07;;;;;;;;;;;18.20;99.90;;;;;;5126379;28;19926;-68
2023/07/17 04:00:34;;;;;;;;;;;18.10;99.90;;;;;;5125596;28;20207;-69
2023/07/17 04:03:00;;;;;;;;;;;18.10;99.90;;;;;;5126504;28;20136;-69
2023/07/17 04:05:27;;;;;;;;;;;18.10;99.90;;;;;;5126272;28;19926;-68
2023/07/17 04:07:53;;;;;;;;;;;18.10;99.90;;;;;;5126096;28;20271;-68
2023/07/17 04:10:20;;;;;;;;;;;18.10;99.90;;;;;;5125711;28;19919;-69
2023/07/17 04:12:47;;;;;;;;;;;18.10;99.90;;;;;;5125965;28;20255;-70
2023/07/17 04:15:15;;;;;;;;;;;18.10;99.90;;;;;;5126066;28;19983;-69
2023/07/17 04:17:41;;;;;;;;;;;18.10;99.90;;;;;;5126345;28;19920;-69
2023/07/17 04:20:09;;;;;;;;;;;18.10;99.90;;;;;;5125664;28;19920;-69
2023/07/17 04:22:36;;;;;;;;;;;18.10;99.90;;;;;;5125820;27;20219;-69
2023/07/17 04:25:03;;;;;;;;;;;18.10;99.90;;;;;;5126013;28;19983;-69
2023/07/17 04:27:30;;;;;;;;;;;18.00;99.90;;;;;;5125820;28;19983;-69
2023/07/17 04:29:57;;;;;;;;;;;18.00;99.90;;;;;;5125585;28;19915;-69
2023/07/17 04:32:25;;;;;;;;;;;18.00;99.90;;;;;;5125823;28;19983;-69
2023/07/17 04:34:52;;;;;;;;;;;18.00;99.90;;;;;;5125420;28;20204;-69
2023/07/17 04:37:19;;;;;;;;;;;17.90;99.90;;;;;;5125677;28;19982;-69
2023/07/17 04:39:46;;;;;;;;;;;17.90;99.90;;;;;;5125732;28;19961;-70
2023/07/17 04:42:12;;;;;;;;;;;17.90;99.90;;;;;;5124733;28;20093;-67
2023/07/17 04:44:39;;;;;;;;;;;17.90;99.90;;;;;;5125635;28;19920;-66
2023/07/17 04:47:06;;;;;;;;;;;17.90;99.90;;;;;;5125601;28;19983;-67
2023/07/17 04:49:33;;;;;;;;;;;17.90;99.90;;;;;;5125637;28;20197;-67
2023/07/17 04:52:00;;;;;;;;;;;17.90;99.90;;;;;;5124690;28;19934;-69
2023/07/17 04:54:27;;;;;;;;;;;17.90;99.90;;;;;;5124970;28;19988;-70
2023/07/17 04:56:53;;;;;;;;;;;17.90;99.90;;;;;;5124865;28;20212;-68
2023/07/17 04:59:20;;;;;;;;;;;17.90;99.90;;;;;;5125270;28;19979;-70
2023/07/17 05:01:46;;;;;;;;;;;18.00;99.90;;;;;;5124450;28;19981;-69
2023/07/17 05:04:13;;;;;;;;;;;18.00;99.90;;;;;;5125330;28;19926;-68
2023/07/17 05:06:41;;;;;;;;;;;18.00;99.90;;;;;;5124857;28;19923;-71
2023/07/17 05:09:08;;;;;;;;;;;18.10;99.90;;;;;;5124399;28;19920;-69
2023/07/17 05:11:35;;;;;;;;;;;18.20;99.90;;;;;;5124499;28;19982;-70
2023/07/17 05:14:01;;;;;;;;;;;18.20;99.90;;;;;;5124516;28;20234;-69
2023/07/17 05:16:28;;;;;;;;;;;18.30;99.90;;;;;;5124644;28;19927;-69
2023/07/17 05:18:55;;;;;;;;;;;18.40;99.90;;;;;;5124592;28;19919;-68
2023/07/17 05:21:21;;;;;;;;;;;18.50;99.90;;;;;;5122594;28;19920;-69
2023/07/17 05:23:49;;;;;;;;;;;18.60;99.90;;;;;;5124498;28;19949;-69
2023/07/17 05:26:16;;;;;;;;;;;18.60;99.90;;;;;;5124518;28;20203;-68
2023/07/17 05:28:43;;;;;;;;;;;18.60;99.90;;;;;;5124473;28;20234;-69
2023/07/17 05:31:09;;;;;;;;;;;18.70;99.90;;;;;;5124098;28;19994;-68
2023/07/17 05:33:36;;;;;;;;;;;18.80;99.90;;;;;;5124384;28;19920;-74
2023/07/17 05:36:03;;;;;;;;;;;18.80;99.90;;;;;;5124361;28;19979;-71
2023/07/17 05:38:29;;;;;;;;;;;18.90;99.90;;;;;;5124063;28;19919;-69
2023/07/17 05:41:02;;;;;;;;;;;19.00;99.90;;;;;;5123910;28;19990;-69
2023/07/17 05:43:30;;;;;;;;;;;19.10;99.90;;;;;;5124281;28;19919;-69
2023/07/17 05:45:57;;;;;;;;;;;19.10;99.90;;;;;;5124060;28;19957;-69
2023/07/17 05:48:24;;;;;;;;;;;19.30;99.90;;;;;;5124625;28;19962;-69
2023/07/17 05:50:50;;;;;;;;;;;19.40;99.90;;;;;;5115163;28;19951;-70
2023/07/17 05:53:17;;;;;;;;;;;19.40;99.90;;;;;;5106707;28;19998;-69
2023/07/17 05:55:44;;;;;;;;;;;19.50;99.90;;;;;;5121558;28;19960;-71
2023/07/17 05:58:12;;;;;;;;;;;19.60;99.90;;;;;;5124211;28;19919;-70
2023/07/17 06:00:39;;;;;;;;;;;19.70;99.90;;;;;;5122852;28;20230;-70
2023/07/17 06:03:06;;;;;;;;;;;19.70;99.90;;;;;;5121761;28;19920;-69
2023/07/17 06:05:36;;;;;;;;;;;19.80;99.90;;;;;;5124031;28;19924;-70
2023/07/17 06:08:03;;;;;;;;;;;19.80;99.90;;;;;;5142608;27;19978;-69
2023/07/17 06:10:30;;;;;;;;;;;19.80;99.90;;;;;;5103272;27;19920;-69
2023/07/17 06:12:57;;;;;;;;;;;19.90;99.90;;;;;;5110743;28;19958;-69
2023/07/17 06:15:25;;;;;;;;;;;20.00;99.90;;;;;;5122392;28;19920;-69
2023/07/17 06:17:51;;;;;;;;;;;20.00;99.90;;;;;;5122786;28;19920;-72
2023/07/17 06:20:20;;;;;;;;;;;20.10;99.90;;;;;;5123393;28;19920;-70
2023/07/17 06:22:47;;;;;;;;;;;20.10;99.90;;;;;;5123321;28;19961;-69
2023/07/17 06:25:13;;;;;;;;;;;20.10;99.90;;;;;;5123931;28;19979;-69
2023/07/17 06:27:40;;;;;;;;;;;20.10;99.90;;;;;;5124077;28;20282;-69
2023/07/17 06:30:07;;;;;;;;;;;20.10;99.90;;;;;;5123025;28;19920;-69
2023/07/17 06:32:35;;;;;;;;;;;20.10;99.90;;;;;;5123940;28;19982;-68
2023/07/17 06:35:02;;;;;;;;;;;20.20;99.90;;;;;;5123761;28;19983;-69
2023/07/17 06:37:29;;;;;;;;;;;20.20;99.90;;;;;;5121172;28;19920;-68
2023/07/17 06:39:55;;;;;;;;;;;20.20;99.90;;;;;;5123531;28;19919;-69
2023/07/17 06:42:22;;;;;;;;;;;20.30;99.90;;;;;;5123874;28;19926;-69
2023/07/17 06:44:48;;;;;;;;;;;20.30;99.90;;;;;;5123729;28;19926;-69
2023/07/17 06:47:15;;;;;;;;;;;20.20;99.90;;;;;;5121086;28;19988;-69
2023/07/17 06:49:43;;;;;;;;;;;20.20;99.90;;;;;;5123516;28;20174;-69
2023/07/17 06:52:09;;;;;;;;;;;20.20;99.90;;;;;;5122753;28;19919;-69
2023/07/17 06:54:36;;;;;;;;;;;20.30;99.90;;;;;;5123461;28;19970;-69
2023/07/17 06:57:03;;;;;;;;;;;20.30;99.90;;;;;;5123099;28;19991;-69
2023/07/17 06:59:29;;;;;;;;;;;20.30;99.90;;;;;;5103071;28;19971;-69
2023/07/17 07:01:56;;;;;;;;;;;20.30;99.90;;;;;;5102691;28;19982;-69
2023/07/17 07:04:23;;;;;;;;;;;20.40;99.90;;;;;;5108829;28;19983;-69
2023/07/17 07:06:51;;;;;;;;;;;20.50;99.90;;;;;;5127068;28;19919;-70
2023/07/17 07:09:17;;;;;;;;;;;20.50;99.90;;;;;;5127626;28;19919;-70
2023/07/17 07:11:44;;;;;;;;;;;20.60;99.90;;;;;;5126644;28;19954;-70
2023/07/17 07:14:10;;;;;;;;;;;20.60;99.90;;;;;;5127510;28;19924;-69
2023/07/17 07:16:37;;;;;;;;;;;20.70;99.90;;;;;;5126962;28;19951;-71
2023/07/17 07:19:04;;;;;;;;;;;20.80;99.90;;;;;;5127050;28;19987;-68
2023/07/17 07:21:30;;;;;;;;;;;20.90;99.90;;;;;;5126328;28;19990;-69
2023/07/17 07:23:58;;;;;;;;;;;20.90;99.90;;;;;;5126526;28;20106;-68
2023/07/17 07:26:25;;;;;;;;;;;21.00;99.90;;;;;;5126989;28;19919;-69
2023/07/17 07:28:51;;;;;;;;;;;21.00;99.90;;;;;;5127267;28;19951;-69
2023/07/17 07:31:18;;;;;;;;;;;21.00;99.90;;;;;;5126256;28;19987;-68
2023/07/17 07:33:44;;;;;;;;;;;21.20;99.90;;;;;;5126987;28;19926;-69
2023/07/17 07:36:11;;;;;;;;;;;21.20;99.90;;;;;;5126671;28;19999;-69
2023/07/17 07:38:38;;;;;;;;;;;21.30;99.90;;;;;;5124538;28;19991;-68
2023/07/17 07:41:06;;;;;;;;;;;21.30;99.90;;;;;;5126289;28;19920;-71
2023/07/17 07:43:32;;;;;;;;;;;21.40;99.90;;;;;;5126952;28;19947;-68
2023/07/17 07:45:59;;;;;;;;;;;21.50;99.90;;;;;;5126513;28;19926;-68
2023/07/17 07:48:25;;;;;;;;;;;21.50;99.90;;;;;;5126899;28;19991;-68
2023/07/17 07:50:52;;;;;;;;;;;21.50;99.90;;;;;;5126127;28;19926;-70
2023/07/17 07:53:19;;;;;;;;;;;21.60;99.90;;;;;;5126307;28;19927;-68
2023/07/17 07:55:45;;;;;;;;;;;21.60;99.90;;;;;;5126403;28;20000;-68
2023/07/17 07:58:13;;;;;;;;;;;21.70;99.90;;;;;;5126354;28;20282;-68
2023/07/17 08:00:40;;;;;;;;;;;21.70;99.90;;;;;;5126069;28;19947;-68
2023/07/17 08:03:06;;;;;;;;;;;21.70;99.90;;;;;;5126484;28;19927;-68
2023/07/17 08:05:33;;;;;;;;;;;21.70;99.90;;;;;;5126109;28;19982;-68
2023/07/17 08:08:00;;;;;;;;;;;21.80;99.90;;;;;;5123610;28;19920;-68
2023/07/17 08:10:26;;;;;;;;;;;21.80;99.90;;;;;;5125784;28;19926;-68
2023/07/17 08:12:53;;;;;;;;;;;21.90;99.90;;;;;;5126080;28;20129;-68
2023/07/17 08:15:21;;;;;;;;;;;22.00;99.90;;;;;;5126046;28;19994;-68
2023/07/17 08:17:48;;;;;;;;;;;22.00;99.90;;;;;;5115337;28;19926;-71
2023/07/17 08:20:15;;;;;;;;;;;22.20;99.90;;;;;;5108632;28;19920;-69
2023/07/17 08:22:41;;;;;;;;;;;22.20;99.90;;;;;;5124592;28;20207;-70
2023/07/17 08:25:08;;;;;;;;;;;22.30;99.90;;;;;;5121746;28;19988;-70
2023/07/17 08:27:35;;;;;;;;;;;22.30;99.90;;;;;;5105730;28;19920;-68
2023/07/17 08:30:03;;;;;;;;;;;22.30;99.90;;;;;;5104846;28;19926;-68
2023/07/17 08:32:32;;;;;;;;;;;22.40;99.90;;;;;;5105558;28;19920;-70
2023/07/17 08:34:58;;;;;;;;;;;22.40;99.90;;;;;;5120072;28;19927;-68
2023/07/17 08:37:25;;;;;;;;;;;22.40;99.90;;;;;;5125893;28;20002;-68
2023/07/17 08:39:52;;;;;;;;;;;22.30;99.90;;;;;;5125299;28;19987;-67
2023/07/17 08:42:18;;;;;;;;;;;22.30;99.90;;;;;;5125643;28;19995;-70
2023/07/17 08:44:45;;;;;;;;;;;22.40;99.90;;;;;;5125397;28;19990;-68
2023/07/17 08:47:11;;;;;;;;;;;22.40;99.90;;;;;;5125358;28;19920;-68
2023/07/17 08:49:40;;;;;;;;;;;22.50;99.90;;;;;;5125664;28;19919;-67
2023/07/17 08:52:07;;;;;;;;;;;22.60;99.90;;;;;;5109175;28;19920;-68
2023/07/17 08:54:34;;;;;;;;;;;22.60;99.90;;;;;;5104844;28;19927;-69
2023/07/17 08:57:02;;;;;;;;;;;22.60;99.90;;;;;;5104871;28;19987;-68
2023/07/17 08:59:30;;;;;;;;;;;22.70;99.90;;;;;;5104911;28;20157;-68
2023/07/17 09:01:57;;;;;;;;;;;22.80;99.90;;;;;;5104291;28;19962;-68
2023/07/17 09:04:25;;;;;;;;;;;22.80;99.90;;;;;;5124272;28;19920;-68
2023/07/17 09:06:53;;;;;;;;;;;22.90;99.90;;;;;;5124777;28;19959;-68
2023/07/17 09:09:19;;;;;;;;;;;22.80;99.90;;;;;;5124721;28;19920;-68
2023/07/17 09:11:46;;;;;;;;;;;22.80;99.90;;;;;;5124497;28;19926;-68
2023/07/17 09:14:13;;;;;;;;;;;22.70;99.90;;;;;;5125195;28;19996;-67
2023/07/17 09:16:40;;;;;;;;;;;22.70;99.90;;;;;;5124557;28;20181;-68
2023/07/17 09:19:06;;;;;;;;;;;22.70;99.90;;;;;;5125099;28;19996;-70
2023/07/17 09:21:33;;;;;;;;;;;22.80;99.90;;;;;;5124225;28;20002;-69
2023/07/17 09:24:01;;;;;;;;;;;22.80;99.90;;;;;;5124627;28;20279;-68
2023/07/17 09:26:28;;;;;;;;;;;22.90;99.90;;;;;;5124579;28;19986;-68
2023/07/17 09:28:56;;;;;;;;;;;22.90;99.90;;;;;;5118137;28;21041;-70
2023/07/17 09:31:23;;;;;;;;;;;22.90;99.90;;;;;;5124178;28;20084;-68
2023/07/17 09:33:50;;;;;;;;;;;22.90;99.90;;;;;;5124658;28;19924;-68
2023/07/17 09:36:16;;;;;;;;;;;23.10;99.90;;;;;;5124257;28;19982;-68
2023/07/17 09:38:43;;;;;;;;;;;23.10;99.90;;;;;;5124274;28;19962;-68
2023/07/17 09:41:24;;;;;;;;;;;23.00;99.90;;;;;;5123919;28;19982;-68
2023/07/17 09:43:54;;;;;;;;;;;23.00;99.90;;;;;;5124602;28;19920;-67
2023/07/17 09:46:21;;;;;;;;;;;22.90;99.90;;;;;;5106475;28;19926;-68
2023/07/17 09:48:50;;;;;;;;;;;22.90;99.90;;;;;;5103928;28;19988;-67
2023/07/17 09:51:18;;;;;;;;;;;22.90;99.90;;;;;;5103434;28;19920;-68
2023/07/17 09:53:46;;;;;;;;;;;23.00;99.90;;;;;;5124529;27;19942;-68
2023/07/17 09:56:14;;;;;;;;;;;22.90;99.90;;;;;;5123582;28;19923;-71
2023/07/17 09:58:46;;;;;;;;;;;23.00;99.90;;;;;;5119614;28;20300;-68
2023/07/17 10:01:15;;;;;;;;;;;23.00;99.90;;;;;;5123328;28;19920;-70
2023/07/17 10:03:43;;;;;;;;;;;23.00;99.90;;;;;;5107806;28;19983;-68
2023/07/17 10:06:11;;;;;;;;;;;23.10;99.90;;;;;;5125891;27;19951;-68
2023/07/17 10:08:38;;;;;;;;;;;23.20;99.90;;;;;;5142271;27;19985;-69
2023/07/17 10:11:05;;;;;;;;;;;23.30;99.90;;;;;;5139227;27;19925;-68
2023/07/17 10:13:32;;;;;;;;;;;23.30;99.90;;;;;;5141346;27;20219;-68
2023/07/17 10:16:00;;;;;;;;;;;23.40;99.90;;;;;;5130459;27;19986;-70
2023/07/17 10:18:27;;;;;;;;;;;23.40;99.90;;;;;;5144356;27;19920;-68
2023/07/17 10:20:55;;;;;;;;;;;23.60;99.90;;;;;;5140255;28;19936;-68
2023/07/17 10:23:25;;;;;;;;;;;23.80;99.90;;;;;;5120323;28;19983;-69
2023/07/17 10:25:51;;;;;;;;;;;23.90;99.90;;;;;;5112536;28;19920;-68
2023/07/17 10:28:29;;;;;;;;;;;24.00;99.90;;;;;;5117049;28;19920;-68
2023/07/17 10:30:56;;;;;;;;;;;24.00;99.90;;;;;;5121917;28;20118;-69
2023/07/17 10:33:23;;;;;;;;;;;24.00;99.90;;;;;;5122887;28;19920;-68
2023/07/17 10:35:51;;;;;;;;;;;24.10;99.90;;;;;;5125035;28;20208;-68
2023/07/17 10:38:18;;;;;;;;;;;24.30;99.90;;;;;;5125650;28;20008;-69
2023/07/17 10:40:45;;;;;;;;;;;24.30;99.90;;;;;;5125166;28;19920;-70
2023/07/17 10:43:13;;;;;;;;;;;24.50;99.90;;;;;;5127293;27;19979;-67
2023/07/17 10:45:39;;;;;;;;;;;24.50;99.90;;;;;;5127226;28;19989;-68
2023/07/17 10:48:06;;;;;;;;;;;24.60;99.90;;;;;;5136653;27;19982;-68
2023/07/17 10:50:34;;;;;;;;;;;24.60;99.90;;;;;;5126933;28;19920;-68
2023/07/17 10:53:04;;;;;;;;;;;24.60;99.90;;;;;;5109842;28;19926;-68
2023/07/17 10:55:31;;;;;;;;;;;24.60;99.90;;;;;;5137945;27;19935;-68
2023/07/17 10:57:58;;;;;;;;;;;24.50;99.90;;;;;;5124854;28;20207;-68
2023/07/17 11:00:25;;;;;;;;;;;24.50;99.90;;;;;;5124485;28;20100;-70
2023/07/17 11:02:52;;;;;;;;;;;24.50;99.90;;;;;;5127409;28;19985;-68
2023/07/17 11:05:18;;;;;;;;;;;24.40;99.90;;;;;;5127362;28;19986;-67
2023/07/17 11:07:46;;;;;;;;;;;24.50;99.90;;;;;;5127525;28;19987;-68
2023/07/17 11:10:14;;;;;;;;;;;24.40;99.90;;;;;;5126786;28;19928;-68
2023/07/17 11:12:41;;;;;;;;;;;24.50;99.90;;;;;;5143174;27;19923;-68
2023/07/17 11:15:13;;;;;;;;;;;24.50;99.90;;;;;;5147566;27;19983;-68
2023/07/17 11:17:39;;;;;;;;;;;24.50;99.90;;;;;;5116013;28;20002;-69
2023/07/17 11:20:07;;;;;;;;;;;24.60;99.90;;;;;;5125353;28;19946;-67
2023/07/17 11:22:33;;;;;;;;;;;24.60;99.90;;;;;;5126244;28;19921;-70
2023/07/17 11:25:02;;;;;;;;;;;24.60;99.90;;;;;;5117891;28;19987;-68
2023/07/17 11:27:28;;;;;;;;;;;24.60;99.90;;;;;;5123315;28;19987;-68
2023/07/17 11:29:55;;;;;;;;;;;24.60;99.90;;;;;;5123549;27;19920;-68
2023/07/17 11:32:22;;;;;;;;;;;24.80;99.90;;;;;;5123346;28;20167;-69
2023/07/17 11:34:52;;;;;;;;;;;24.90;99.90;;;;;;5123615;28;20219;-68
2023/07/17 11:37:34;;;;;;;;;;;25.10;99.90;;;;;;5115153;28;19920;-70
2023/07/17 11:40:05;;;;;;;;;;;25.30;99.90;;;;;;5105878;28;19942;-68
2023/07/17 11:42:46;;;;;;;;;;;25.50;99.90;;;;;;5106101;28;19923;-68
2023/07/17 11:45:14;;;;;;;;;;;25.70;99.90;;;;;;5105084;28;19991;-67
2023/07/17 11:47:41;;;;;;;;;;;25.90;99.90;;;;;;5106353;28;19920;-68
2023/07/17 11:50:09;;;;;;;;;;;26.20;99.90;;;;;;5111503;28;20246;-68
2023/07/17 11:52:36;;;;;;;;;;;26.30;99.90;;;;;;5125355;28;20107;-67
2023/07/17 11:55:04;;;;;;;;;;;26.50;99.90;;;;;;5126473;28;19919;-68
2023/07/17 11:57:31;;;;;;;;;;;26.70;99.90;;;;;;5126488;28;20013;-68
2023/07/17 12:00:01;;;;;;;;;;;27.00;99.90;;;;;;5122395;28;19983;-68
2023/07/17 12:02:28;;;;;;;;;;;26.90;99.90;;;;;;5121799;28;19920;-69
2023/07/17 12:04:54;;;;;;;;;;;26.70;99.90;;;;;;5126252;28;19978;-67
2023/07/17 12:07:21;;;;;;;;;;;26.30;99.90;;;;;;5126462;28;20008;-70
2023/07/17 12:09:49;;;;;;;;;;;26.10;99.90;;;;;;5125952;28;20196;-69
2023/07/17 12:12:17;;;;;;;;;;;25.90;99.90;;;;;;5122962;28;19931;-68
2023/07/17 12:14:44;;;;;;;;;;;25.80;99.90;;;;;;5121084;28;19920;-67
2023/07/17 12:17:11;;;;;;;;;;;25.50;99.90;;;;;;5125258;27;19987;-68
2023/07/17 12:19:37;;;;;;;;;;;25.50;99.90;;;;;;5127609;27;19919;-68
2023/07/17 12:22:04;;;;;;;;;;;25.70;99.90;;;;;;5145760;27;19956;-68
2023/07/17 12:24:31;;;;;;;;;;;26.00;99.90;;;;;;5146648;27;19919;-68
2023/07/17 12:26:57;;;;;;;;;;;26.40;99.90;;;;;;5133086;27;20007;-68
2023/07/17 12:29:25;;;;;;;;;;;26.60;99.90;;;;;;5145835;27;19920;-69
2023/07/17 12:31:52;;;;;;;;;;;26.80;99.90;;;;;;5145908;27;19919;-68
2023/07/17 12:34:18;;;;;;;;;;;27.00;99.90;;;;;;5135212;27;19951;-70
2023/07/17 12:36:45;;;;;;;;;;;27.20;99.90;;;;;;5125125;28;19983;-68
2023/07/17 12:39:12;;;;;;;;;;;27.40;99.90;;;;;;5125931;28;19987;-69
2023/07/17 12:50:19;;;;;;;;;;;26.90;99.90;;;;;;5057861;28;20089;-90
2023/07/17 12:55:49;;;;;;;;;;;26.90;99.90;;;;;;5050996;28;19950;-90
2023/07/17 12:58:17;;;;;;;;;;;27.20;99.90;;;;;;5044185;28;19995;-90
2023/07/17 13:00:43;;;;;;;;;;;27.30;99.90;;;;;;5039387;28;19968;-90
2023/07/17 13:03:10;;;;;;;;;;;27.60;99.90;;;;;;5038522;28;19993;-90
2023/07/17 13:05:38;;;;;;;;;;;27.90;99.70;;;;;;5038477;28;19951;-90
2023/07/17 13:08:05;;;;;;;;;;;28.00;99.20;;;;;;5034611;28;20268;-91
2023/07/17 13:10:32;;;;;;;;;;;28.30;98.80;;;;;;5045187;28;19929;-90
2023/07/17 13:12:58;;;;;;;;;;;28.50;98.10;;;;;;5044707;28;19929;-91
2023/07/17 13:15:25;;;;;;;;;;;28.40;97.70;;;;;;5044874;28;19920;-89
2023/07/17 13:17:52;;;;;;;;;;;28.50;97.50;;;;;;5047824;28;19929;-90
2023/07/17 13:20:19;;;;;;;;;;;28.40;97.70;;;;;;5047949;28;20121;-90
2023/07/17 13:22:47;;;;;;;;;;;28.30;97.40;;;;;;5046173;28;19951;-92
2023/07/17 13:25:13;;;;;;;;;;;28.40;97.30;;;;;;5047022;28;19921;-92
2023/07/17 13:27:40;;;;;;;;;;;28.20;96.60;;;;;;5047211;28;19921;-91
2023/07/17 13:30:07;;;;;;;;;;;28.30;97.20;;;;;;5046062;28;19921;-92
2023/07/17 13:32:34;;;;;;;;;;;28.20;96.40;;;;;;5045564;28;19983;-91
2023/07/17 13:35:01;;;;;;;;;;;27.90;96.50;;;;;;5045065;28;20228;-91
2023/07/17 13:37:28;;;;;;;;;;;27.70;97.40;;;;;;5044869;28;20239;-91
2023/07/17 13:39:56;;;;;;;;;;;27.80;97.60;;;;;;5046160;28;19940;-92
2023/07/17 13:42:22;;;;;;;;;;;28.10;97.00;;;;;;5046431;28;19945;-93
2023/07/17 13:44:49;;;;;;;;;;;28.50;97.00;;;;;;5046494;28;19925;-91
2023/07/17 13:47:16;;;;;;;;;;;28.70;96.10;;;;;;5045104;28;19921;-92
2023/07/17 13:49:43;;;;;;;;;;;28.80;96.20;;;;;;5045848;28;20149;-91
2023/07/17 13:52:09;;;;;;;;;;;29.00;95.50;;;;;;5044057;28;19936;-89
2023/07/17 13:54:36;;;;;;;;;;;29.10;95.20;;;;;;5047825;28;19928;-90
2023/07/17 13:57:05;;;;;;;;;;;29.20;95.90;;;;;;5051403;28;20008;-90
2023/07/17 13:59:31;;;;;;;;;;;29.50;95.40;;;;;;5044831;28;19928;-92
2023/07/17 14:01:58;;;;;;;;;;;29.50;94.50;;;;;;5044263;28;19921;-91
2023/07/17 14:04:25;;;;;;;;;;;29.20;94.70;;;;;;5046529;28;19955;-91
2023/07/17 14:06:51;;;;;;;;;;;29.00;95.10;;;;;;5044541;28;19957;-90
2023/07/17 14:09:18;;;;;;;;;;;28.80;95.00;;;;;;5043943;28;19988;-91
2023/07/17 14:11:47;;;;;;;;;;;28.60;94.90;;;;;;5043005;28;19932;-91
2023/07/17 14:14:15;;;;;;;;;;;28.60;95.00;;;;;;5043424;28;19953;-92
2023/07/17 14:16:42;;;;;;;;;;;28.70;95.20;;;;;;5043765;28;19921;-91
2023/07/17 14:19:09;;;;;;;;;;;28.70;95.20;;;;;;5043559;28;19921;-91
2023/07/17 14:21:35;;;;;;;;;;;28.90;95.20;;;;;;5043653;28;19955;-92
2023/07/17 14:24:03;;;;;;;;;;;29.00;94.80;;;;;;5043771;28;20212;-91
2023/07/17 14:26:30;;;;;;;;;;;28.80;94.50;;;;;;5046661;28;19924;-89